Latest Weather Observations for Woolshed

IDQ60801

Issued at 10:02 pm EST Thursday 28 July 2016 (issued every 30 minutes, with the page automatically refreshed every 10 minutes)

About weather observations | Map of weather stations | Latest weather observations for QLD | Other Formats
Station Details ID: 033307 Name: WOOLSHED Lat: -19.42 Lon: 146.54 Height: 556.04 m
Data from the previous 72 hours. | See also: Recent months at Woolshed
Date/Time
EST
Temp
°C
App
Temp
°C
Dew
Point
°C
Rel
Hum
%
Delta-T
°C
Wind Press
QNH
hPa
Press
MSL
hPa
Rain since
9am
mm
Dir  Spd
km/h
Gust
km/h
Spd
kts
Gust
kts
28/10:00pm 10.0 9.7 8.8 92 0.6 CALM 0 0 0 0 1022.4 1021.0 0.0
28/09:30pm 10.7 10.6 9.3 91 0.7 CALM 0 0 0 0 1022.4 1021.0 0.0
28/09:00pm 10.8 10.6 9.1 89 0.9 CALM 0 0 0 0 1022.4 1021.0 0.0
28/08:30pm 11.7 11.6 9.4 86 1.2 CALM 0 0 0 0 1022.2 1020.8 0.0
28/08:00pm 12.6 12.4 9.2 80 1.8 CALM 0 0 0 0 1022.0 1020.5 0.0
28/07:30pm 14.4 14.7 10.8 79 2.0 CALM 0 2 0 1 1021.6 1020.2 0.0
28/07:00pm 15.0 15.2 10.6 75 2.4 CALM 0 2 0 1 1021.3 1019.9 0.0
28/06:30pm 16.0 16.2 10.5 70 3.0 CALM 0 0 0 0 1021.1 1019.7 0.0
28/06:00pm 17.1 16.5 8.8 58 4.4 NE 2 6 1 3 1020.8 1019.4 0.0
28/05:30pm 19.2 17.8 5.6 41 6.9 ESE 2 6 1 3 1020.6 1019.2 0.0
28/05:00pm 20.3 18.4 4.8 36 7.7 ESE 4 9 2 5 1020.4 1018.9 0.0
28/04:30pm 21.3 19.0 4.8 34 8.3 ESE 6 13 3 7 1020.1 1018.6 0.0
28/04:00pm 21.8 19.5 4.8 33 8.6 ESE 6 11 3 6 1020.1 1018.6 0.0
28/03:30pm 22.2 20.7 5.2 33 8.7 SE 2 9 1 5 1019.9 1018.5 0.0
28/03:00pm 21.9 18.8 1.6 26 9.7 S 7 13 4 7 1019.8 1018.4 0.0
28/02:30pm 22.0 18.6 1.6 26 9.7 S 9 17 5 9 1019.9 1018.5 0.0
28/02:00pm 22.0 19.7 4.6 32 8.8 ESE 6 9 3 5 1020.1 1018.6 0.0
28/01:30pm 21.4 19.5 4.9 34 8.3 SE 4 9 2 5 1020.5 1019.0 0.0
28/01:00pm 21.2 19.0 5.1 35 8.1 E 6 11 3 6 1020.8 1019.4 0.0
28/12:30pm 21.1 18.9 5.1 35 8.1 SSE 6 11 3 6 1021.3 1019.9 0.0
28/12:00pm 21.1 18.9 5.1 35 8.1 SE 6 13 3 7 1021.8 1020.4 0.0
28/11:30am 20.6 18.3 5.0 36 7.9 ESE 6 17 3 9 1022.3 1020.9 0.0
28/11:00am 20.2 17.7 4.7 36 7.7 SSW 7 13 4 7 1022.5 1021.1 0.0
28/10:30am 19.4 16.5 4.4 37 7.4 S 9 15 5 8 1022.7 1021.3 0.0
28/10:00am 18.3 15.2 3.8 38 7.0 S 9 20 5 11 1023.0 1021.6 0.0
28/09:30am 17.5 14.6 4.5 42 6.4 S 9 20 5 11 1023.3 1021.9 0.0
28/09:00am 16.6 13.8 5.3 47 5.6 S 9 19 5 10 1023.1 1021.7 0.0
28/08:30am 15.7 12.7 6.2 53 4.7 SSW 11 20 6 11 1022.8 1021.4 0.0
28/08:00am 14.5 11.6 6.3 58 4.1 SSW 11 19 6 10 1022.5 1021.1 0.0
28/07:30am 13.5 11.0 6.4 62 3.5 SSW 9 15 5 8 1022.4 1021.0 0.0
28/07:00am 12.9 10.7 6.0 63 3.4 SSW 7 15 4 8 1022.1 1020.6 0.0
28/06:30am 12.6 10.3 5.8 63 3.3 SSW 7 13 4 7 1022.1 1020.6 0.0
28/06:00am 12.5 10.8 6.1 65 3.1 SW 4 7 2 4 1021.8 1020.4 0.0
28/05:30am 13.5 11.6 6.6 63 3.4 SSW 6 11 3 6 1021.7 1020.3 0.0
28/05:00am 13.8 11.8 7.1 64 3.4 SSW 7 13 4 7 1021.5 1020.1 0.0
28/04:30am 13.7 12.5 7.9 68 3.0 SW 4 9 2 5 1021.4 1020.0 0.0
28/04:00am 14.6 12.8 8.1 65 3.3 SSW 7 17 4 9 1021.3 1019.9 0.0
28/03:30am 15.0 13.5 8.3 64 3.5 S 6 15 3 8 1021.4 1020.0 0.0
28/03:00am 15.6 13.8 8.1 61 3.9 SSE 7 19 4 10 1021.4 1020.0 0.0
28/02:30am 15.9 13.8 8.4 61 3.9 S 9 19 5 10 1021.3 1019.9 0.0
28/02:00am 16.1 13.6 8.3 60 4.1 S 11 17 6 9 1021.3 1019.9 0.0
28/01:30am 16.0 13.6 8.7 62 3.8 SSW 11 22 6 12 1021.7 1020.3 0.0
28/01:00am 16.4 14.5 9.1 62 3.9 SSW 9 17 5 9 1022.1 1020.6 0.0
28/12:30am 17.0 14.8 9.4 61 4.1 S 11 20 6 11 1022.1 1020.6 0.0
28/12:00am 17.2 14.7 9.6 61 4.1 S 13 20 7 11 1022.0 1020.5 0.0
 
Date/Time
EST
Temp
°C
App
Temp
°C
Dew
Point
°C
Rel
Hum
%
Delta-T
°C
Wind Press
QNH
hPa
Press
MSL
hPa
Rain since
9am
mm
Dir  Spd
km/h
Gust
km/h
Spd
kts
Gust
kts
27/11:30pm 17.3 15.3 10.2 63 3.9 S 11 20 6 11 1022.1 1020.6 0.0
27/11:00pm 17.7 16.3 10.8 64 3.8 S 9 17 5 9 1022.2 1020.8 0.0
27/10:30pm 17.4 16.8 11.7 69 3.2 S 6 11 3 6 1022.3 1020.9 0.0
27/10:00pm 17.0 17.5 11.7 71 3.0 CALM 0 2 0 1 1022.3 1020.9 0.0
27/09:30pm 16.9 17.6 12.2 74 2.7 CALM 0 0 0 0 1021.8 1020.4 0.0
27/09:00pm 18.1 19.0 12.8 71 3.0 CALM 0 0 0 0 1021.8 1020.4 0.0
27/08:30pm 19.1 19.8 13.3 69 3.4 SSE 2 4 1 2 1021.5 1020.1 0.0
27/08:00pm 19.9 19.8 13.4 66 3.8 SSE 6 17 3 9 1021.1 1019.7 0.0
27/07:30pm 19.9 20.9 15.3 75 2.8 S 4 11 2 6 1020.7 1019.3 0.0
27/07:00pm 19.1 21.7 17.4 90 1.1 CALM 0 0 0 0 1020.3 1018.8 0.0
27/06:30pm 19.2 21.7 17.2 88 1.2 CALM 0 0 0 0 1019.7 1018.3 0.0
27/06:00pm 19.8 21.5 17.2 85 1.6 NNE 4 7 2 4 1019.4 1018.0 0.0
27/05:30pm 20.5 22.7 17.5 83 1.9 NNE 2 6 1 3 1018.9 1017.4 0.0
27/05:00pm 21.4 22.8 17.4 78 2.5 NNE 6 11 3 6 1018.7 1017.2 0.0
27/04:30pm 22.5 24.7 17.4 73 3.2 NNE 2 7 1 4 1018.6 1017.1 0.0
27/04:00pm 23.4 24.2 13.8 54 5.7 SSE 2 6 1 3 1018.3 1016.8 0.0
27/03:30pm 23.3 24.8 14.6 58 5.3 CALM 0 4 0 2 1018.2 1016.7 0.0
27/03:00pm 23.9 24.9 14.3 55 5.8 N 2 7 1 4 1018.0 1016.6 0.0
27/02:30pm 23.8 24.7 13.9 54 5.9 SSE 2 7 1 4 1018.0 1016.6 0.0
27/02:00pm 24.2 25.0 14.9 56 5.7 ESE 4 9 2 5 1018.4 1016.9 0.0
27/01:30pm 24.0 25.2 15.8 60 5.1 S 4 11 2 6 1018.7 1017.2 0.0
27/01:00pm 24.4 25.2 15.9 59 5.3 SE 6 13 3 7 1018.9 1017.4 0.0
27/12:30pm 23.3 23.8 15.6 62 4.7 S 7 13 4 7 1019.3 1017.9 0.0
27/12:00pm 23.8 25.7 16.6 64 4.5 SE 2 9 1 5 1019.6 1018.2 0.0
27/11:30am 22.9 23.6 15.7 64 4.4 E 6 11 3 6 1019.9 1018.5 0.0
27/11:00am 22.3 23.0 15.6 66 4.1 ESE 6 11 3 6 1020.3 1018.8 0.0
27/10:30am 21.7 22.6 16.0 70 3.5 SE 6 13 3 7 1020.5 1019.0 0.0
27/10:00am 21.3 22.9 16.0 72 3.3 E 2 9 1 5 1020.7 1019.3 0.0
27/09:30am 20.5 22.3 16.5 78 2.5 SE 2 9 1 5 1020.7 1019.3 0.0
27/09:00am 19.0 20.1 16.6 86 1.5 S 6 11 3 6 1020.6 1019.2 0.0
27/08:30am 18.1 19.5 16.3 89 1.1 SSE 4 9 2 5 1020.5 1019.0 0.0
27/08:00am 17.0 17.9 16.2 95 0.5 SSW 6 9 3 5 1020.4 1018.9 0.0
27/07:30am 16.5 17.8 16.2 98 0.2 SSW 4 6 2 3 1020.4 1018.9 0.0
27/07:00am 16.2 18.2 15.9 98 0.2 CALM 0 0 0 0 1020.2 1018.7 0.0
27/06:30am 16.1 18.1 15.9 99 0.1 CALM 0 0 0 0 1019.8 1018.4 0.0
27/06:00am 15.6 17.3 15.3 98 0.2 CALM 0 4 0 2 1019.4 1018.0 0.0
27/05:30am 14.5 15.6 13.5 94 0.6 CALM 0 0 0 0 1019.1 1017.7 0.0
27/05:00am 16.0 17.4 15.5 97 0.3 NE 2 4 1 2 1018.8 1017.3 0.0
27/04:30am 16.2 18.0 15.4 95 0.5 CALM 0 0 0 0 1018.6 1017.1 0.0
27/04:00am 16.9 18.9 16.1 95 0.5 CALM 0 2 0 1 1018.6 1017.1 0.0
27/03:30am 17.5 19.5 16.9 96 0.4 NNE 2 7 1 4 1018.6 1017.1 0.0
27/03:00am 17.7 19.8 17.1 96 0.4 NNE 2 6 1 3 1018.7 1017.2 0.0
27/02:30am 17.9 19.3 17.4 97 0.3 NNE 6 11 3 6 1018.6 1017.1 0.0
27/02:00am 17.8 19.2 17.3 97 0.3 NE 6 13 3 7 1018.8 1017.3 0.0
27/01:30am 17.9 19.7 17.4 97 0.3 NE 4 11 2 6 1019.1 1017.7 0.0
27/01:00am 17.9 19.3 17.3 96 0.4 NE 6 9 3 5 1019.3 1017.9 0.0
27/12:30am 17.9 20.1 17.4 97 0.3 NE 2 7 1 4 1019.3 1017.9 0.0
27/12:00am 17.9 20.1 17.4 97 0.3 NE 2 6 1 3 1019.3 1017.9 0.0
 
Date/Time
EST
Temp
°C
App
Temp
°C
Dew
Point
°C
Rel
Hum
%
Delta-T
°C
Wind Press
QNH
hPa
Press
MSL
hPa
Rain since
9am
mm
Dir  Spd
km/h
Gust
km/h
Spd
kts
Gust
kts
26/11:30pm 17.9 19.4 17.6 98 0.2 NE 6 11 3 6 1019.2 1017.8 0.0
26/11:00pm 17.2 19.2 16.9 98 0.2 NNE 2 6 1 3 1019.3 1017.9 0.0
26/10:30pm 16.6 18.6 16.0 96 0.4 CALM 0 2 0 1 1019.3 1017.9 0.0
26/10:00pm 17.0 19.2 16.4 96 0.4 CALM 0 0 0 0 1019.3 1017.9 0.0
26/09:30pm 17.3 19.6 16.7 96 0.4 CALM 0 0 0 0 1019.1 1017.7 0.0
26/09:00pm 17.5 19.1 16.9 96 0.4 NNE 4 7 2 4 1019.2 1017.8 0.0
26/08:30pm 17.8 19.5 17.2 96 0.4 NE 4 7 2 4 1019.1 1017.7 0.0
26/08:00pm 17.6 19.0 16.5 93 0.7 NE 4 7 2 4 1018.9 1017.4 0.0
26/07:30pm 18.1 20.3 16.6 91 0.9 CALM 0 0 0 0 1018.7 1017.2 0.0
26/07:00pm 18.6 20.2 16.8 89 1.1 NNE 4 6 2 3 1018.3 1016.8 0.0
26/06:30pm 19.1 20.6 16.7 86 1.5 N 4 7 2 4 1018.0 1016.6 0.0
26/06:00pm 19.9 21.0 16.5 81 2.1 N 6 13 3 7 1017.7 1016.3 0.0
26/05:30pm 20.6 21.8 16.0 75 2.8 N 4 11 2 6 1017.4 1016.0 0.0
26/05:00pm 21.8 22.4 15.4 67 3.9 N 6 11 3 6 1017.2 1015.7 0.0
26/04:30pm 22.7 23.3 15.3 63 4.5 N 6 11 3 6 1016.9 1015.4 0.0
26/04:00pm 22.5 23.0 15.1 63 4.5 NNE 6 13 3 7 1016.8 1015.3 0.0
26/03:30pm 21.7 23.2 15.8 69 3.6 NE 2 6 1 3 1016.8 1015.3 0.0
26/03:00pm 22.1 23.2 15.5 66 4.0 NNE 4 9 2 5 1017.0 1015.5 0.0
26/02:30pm 23.5 24.0 15.5 60 4.9 NNE 7 17 4 9 1017.1 1015.6 0.0
26/02:00pm 23.7 24.2 14.9 57 5.4 NNE 6 15 3 8 1017.2 1015.7 0.0
26/01:30pm 22.0 22.5 14.9 64 4.3 E 6 9 3 5 1017.6 1016.2 0.0
26/01:00pm 22.2 22.6 14.8 63 4.5 NE 6 15 3 8 1018.0 1016.6 0.0
26/12:30pm 21.5 22.5 15.3 68 3.8 E 4 13 2 7 1018.4 1016.9 0.0
26/12:00pm 21.7 22.2 15.1 66 4.0 NNE 6 13 3 7 1018.9 1017.4 0.0
26/11:30am 21.8 22.4 15.4 67 3.9 NE 6 9 3 5 1019.1 1017.7 0.0
26/11:00am 20.7 21.4 15.5 72 3.2 E 6 13 3 7 1019.5 1018.1 0.0
26/10:30am 20.7 21.9 15.9 74 2.9 NE 4 9 2 5 1019.7 1018.3 0.0
26/10:00am 20.4 21.9 15.8 75 2.8 NE 2 6 1 3 1019.8 1018.4 0.0
26/09:30am 20.0 21.2 15.8 77 2.6 ESE 4 7 2 4 1019.7 1018.3 0.0
26/09:00am 20.0 21.1 15.6 76 2.7 ENE 4 9 2 5 1019.6 1018.2 0.0
26/08:30am 19.4 21.5 16.2 82 2.0 CALM 0 2 0 1 1019.4 1018.0 0.0
26/08:00am 17.7 19.9 16.4 92 0.8 CALM 0 0 0 0 1019.2 1017.8 0.0
26/07:30am 16.6 18.7 16.3 98 0.2 CALM 0 0 0 0 1019.0 1017.6 0.0
26/07:00am 16.3 18.3 16.1 99 0.1 CALM 0 2 0 1 1018.7 1017.2 0.0
26/06:30am 16.4 18.1 16.2 99 0.1 SE 2 6 1 3 1018.5 1017.0 0.0
26/06:00am 16.1 18.1 15.9 99 0.1 CALM 0 0 0 0 1018.2 1016.7 0.0
26/05:30am 16.0 17.9 15.8 99 0.1 CALM 0 0 0 0 1018.0 1016.6 0.0
26/05:00am 14.8 16.3 14.6 99 0.1 CALM 0 0 0 0 1017.9 1016.5 0.0
26/04:30am 14.2 15.1 14.0 99 0.1 SE 2 6 1 3 1017.9 1016.5 0.0
26/04:00am 11.6 11.9 10.8 95 0.4 CALM 0 0 0 0 1018.0 1016.6 0.0
26/03:30am 12.0 12.4 11.4 96 0.3 CALM 0 0 0 0 1017.9 1016.5 0.0
26/03:00am 12.0 12.5 11.5 97 0.3 CALM 0 0 0 0 1018.0 1016.6 0.0
26/02:30am 11.9 12.3 11.3 96 0.3 CALM 0 0 0 0 1018.4 1016.9 0.0
26/02:00am 11.6 11.9 11.0 96 0.3 CALM 0 0 0 0 1018.7 1017.2 0.0
26/01:30am 11.6 11.8 10.5 93 0.6 CALM 0 0 0 0 1018.8 1017.3 0.0
26/01:00am 12.2 12.6 11.4 95 0.4 CALM 0 0 0 0 1019.3 1017.9 0.0
26/12:30am 12.1 12.5 11.2 94 0.5 CALM 0 0 0 0 1019.3 1017.9 0.0
26/12:00am 12.0 12.4 11.1 94 0.5 CALM 0 0 0 0 1019.5 1018.1 0.0
 
Date/Time
EST
Temp
°C
App
Temp
°C
Dew
Point
°C
Rel
Hum
%
Delta-T
°C
Wind Press
QNH
hPa
Press
MSL
hPa
Rain since
9am
mm
Dir  Spd
km/h
Gust
km/h
Spd
kts
Gust
kts
25/11:30pm 12.5 13.0 11.6 94 0.5 CALM 0 0 0 0 1019.6 1018.2 0.0
25/11:00pm 12.6 13.0 11.3 92 0.7 CALM 0 0 0 0 1019.6 1018.2 0.0
25/10:30pm 13.2 13.9 12.1 93 0.6 CALM 0 0 0 0 1019.5 1018.1 0.0

Other Formats:

Comma delimited format used in spreadsheet applications
http://www.bom.gov.au/fwo/IDQ60801/IDQ60801.95293.axf

JavaScript Object Notation format (JSON) in row-major order
http://www.bom.gov.au/fwo/IDQ60801/IDQ60801.95293.json